Anderson, Alaska
Current Conditions -  °F | °C
As of 4:53 AM on Monday 20 Oct 2014 (Local Time) from PANN Reporting Station
Overcast Overcast  
Wind Chill: -2°   Ceiling: 4700
Heat Index: -2°   Visibility: 10mi
Dew Point: -5°   Wind: 0mph
Humidity: 81%   Direction: NA
Pressure: 29.12"   Gusts: NA
Location:  64.34°N, 149.19°W
Report Text: PANN 201253Z AUTO 00000KT 10SM OVC047 M02/M05 A2912 RMK AO2 SLP869 T10221050 TSNO
Loading
Personal Weather Stations






























Interactive Weather Map
Tropical Storm Tracking
New forecast layout! Learn more

10-Day Weather Forecast

Advertisements
Track Severe Weather on mobile